Accueil
METAR-TAF:

METAR-TAF

Aéroports :

Aéroport de Cannes - Mandelieu

Cannes, France

latitude: 43-33N, longitude: 006-57E, altitude: 3 m

Observation

Le bulletin a été fait il y a 29 minutes, à 01:30 UTC
Vent 5 kt de direction variable
Température 4°C
Humidité 75%
Pression 1027 hPa
Visibilité 10 km ou plus

METAR: LFMD 210130Z AUTO VRB05KT 9999 NCD 04/M00 Q1027

Heure: 02:59 (01:59 UTC)

Prévision

Le bulletin a été fait il y a 11 heures et 59 minutes, à 14:00 UTC
Prévision valable du 20 à 15 UTC au 21 à 15 UTC
Vent 15 kt de est
Visibilité 10 km ou plus
pas de nuages en-dessous de 1500 mètres et pas de cumulonimbus.
Evoluant progressivement
du 20 à 19 UTC au 20 à 21 UTC
Vent 5 kt de direction variable
Evoluant progressivement
du 21 à 09 UTC au 21 à 11 UTC
Vent 10 kt de sud-est

TAF: LFMD 201400Z 2015/2115 10015KT CAVOK BECMG 2019/2021 VRB05KT BECMG 2109/2111 14010KT

Observations et prévisions météorologiques de plus de 4000 aéroports (messages METAR et TAF).

Les stations disponibles sont représentées par des disques jaunes et rouges sur la carte.

Passer la souris dessus pour voir le nom de la station.

Cliquer dessus pour voir les observations et prévisions météorologiques.

Pour changer de carte: cliquez sur les boutons verts avec une croix noire pour zoomer, sur le bouton vert avec un tiret pour effectuer un zoom arrière, ou sur les flèches vertes pour les cartes adjacentes.


METAR-TAF: